sensor_id;sensor_type;location;lat;lon;timestamp;pressure;altitude;pressure_sealevel;temperature;humidity
54369;BME280;40266;52.434;17.056;2023-04-25T00:01:52;99537.61;;;8.70;83.34
54369;BME280;40266;52.434;17.056;2023-04-25T00:05:25;99537.77;;;8.64;83.15
54369;BME280;40266;52.434;17.056;2023-04-25T00:09:04;99534.34;;;8.56;82.84
54369;BME280;40266;52.434;17.056;2023-04-25T00:12:20;99531.45;;;8.47;82.35
54369;BME280;40266;52.434;17.056;2023-04-25T00:16:08;99536.83;;;8.41;82.01
54369;BME280;40266;52.434;17.056;2023-04-25T00:22:56;99534.08;;;8.25;81.62
54369;BME280;40266;52.434;17.056;2023-04-25T00:29:42;99541.61;;;8.10;81.26
54369;BME280;40266;52.434;17.056;2023-04-25T00:37:01;99545.67;;;7.94;80.92
54369;BME280;40266;52.434;17.056;2023-04-25T00:53:51;99551.88;;;7.67;80.82
54369;BME280;40266;52.434;17.056;2023-04-25T01:04:55;99560.73;;;7.51;80.88
54369;BME280;40266;52.434;17.056;2023-04-25T01:07:38;99557.31;;;7.49;80.94
54369;BME280;40266;52.434;17.056;2023-04-25T01:10:22;99554.08;;;7.46;80.92
54369;BME280;40266;52.434;17.056;2023-04-25T01:13:06;99555.48;;;7.45;81.04
54369;BME280;40266;52.434;17.056;2023-04-25T01:15:49;99554.16;;;7.43;81.05
54369;BME280;40266;52.434;17.056;2023-04-25T01:18:32;99555.55;;;7.42;81.18
54369;BME280;40266;52.434;17.056;2023-04-25T01:21:15;99553.67;;;7.41;81.27
54369;BME280;40266;52.434;17.056;2023-04-25T01:23:59;99554.06;;;7.39;81.51
54369;BME280;40266;52.434;17.056;2023-04-25T01:26:43;99552.90;;;7.37;81.54
54369;BME280;40266;52.434;17.056;2023-04-25T01:29:36;99551.18;;;7.36;81.45
54369;BME280;40266;52.434;17.056;2023-04-25T01:32:19;99552.60;;;7.35;81.55
54369;BME280;40266;52.434;17.056;2023-04-25T01:35:03;99559.05;;;7.34;81.78
54369;BME280;40266;52.434;17.056;2023-04-25T01:37:46;99558.04;;;7.33;81.62
54369;BME280;40266;52.434;17.056;2023-04-25T01:40:29;99557.16;;;7.33;81.75
54369;BME280;40266;52.434;17.056;2023-04-25T01:43:13;99555.95;;;7.33;81.62
54369;BME280;40266;52.434;17.056;2023-04-25T01:45:57;99563.02;;;7.34;81.74
54369;BME280;40266;52.434;17.056;2023-04-25T01:48:40;99566.65;;;7.35;81.83
54369;BME280;40266;52.434;17.056;2023-04-25T01:51:23;99565.27;;;7.34;81.83
54369;BME280;40266;52.434;17.056;2023-04-25T01:54:07;99566.52;;;7.34;81.86
54369;BME280;40266;52.434;17.056;2023-04-25T01:56:51;99565.69;;;7.32;81.86
54369;BME280;40266;52.434;17.056;2023-04-25T01:59:36;99565.73;;;7.29;81.76
54369;BME280;40266;52.434;17.056;2023-04-25T02:02:41;99565.95;;;7.28;82.01
54369;BME280;40266;52.434;17.056;2023-04-25T02:05:44;99566.35;;;7.25;82.12
54369;BME280;40266;52.434;17.056;2023-04-25T02:08:28;99566.60;;;7.22;82.21
54369;BME280;40266;52.434;17.056;2023-04-25T02:11:12;99567.30;;;7.21;82.35
54369;BME280;40266;52.434;17.056;2023-04-25T02:14:05;99570.48;;;7.19;82.55
54369;BME280;40266;52.434;17.056;2023-04-25T02:16:54;99570.73;;;7.16;82.70
54369;BME280;40266;52.434;17.056;2023-04-25T02:19:38;99575.45;;;7.14;82.98
54369;BME280;40266;52.434;17.056;2023-04-25T02:22:22;99572.21;;;7.11;83.08
54369;BME280;40266;52.434;17.056;2023-04-25T02:25:06;99570.55;;;7.07;83.18
54369;BME280;40266;52.434;17.056;2023-04-25T02:27:49;99566.98;;;7.04;83.16
54369;BME280;40266;52.434;17.056;2023-04-25T02:30:33;99573.61;;;7.02;83.42
54369;BME280;40266;52.434;17.056;2023-04-25T02:33:15;99567.20;;;7.02;83.36
54369;BME280;40266;52.434;17.056;2023-04-25T02:35:59;99571.56;;;7.01;83.66
54369;BME280;40266;52.434;17.056;2023-04-25T02:38:42;99571.94;;;6.99;83.66
54369;BME280;40266;52.434;17.056;2023-04-25T02:41:25;99575.27;;;6.97;83.86
54369;BME280;40266;52.434;17.056;2023-04-25T02:44:09;99576.00;;;6.95;83.78
54369;BME280;40266;52.434;17.056;2023-04-25T02:46:53;99574.48;;;6.93;83.97
54369;BME280;40266;52.434;17.056;2023-04-25T02:49:39;99577.10;;;6.92;83.98
54369;BME280;40266;52.434;17.056;2023-04-25T02:52:22;99576.45;;;6.90;83.85
54369;BME280;40266;52.434;17.056;2023-04-25T02:55:12;99573.37;;;6.88;84.07
54369;BME280;40266;52.434;17.056;2023-04-25T02:57:56;99569.45;;;6.85;83.92
54369;BME280;40266;52.434;17.056;2023-04-25T03:00:51;99566.19;;;6.82;83.98
54369;BME280;40266;52.434;17.056;2023-04-25T03:03:34;99565.92;;;6.79;83.93
54369;BME280;40266;52.434;17.056;2023-04-25T03:06:17;99559.89;;;6.76;84.05
54369;BME280;40266;52.434;17.056;2023-04-25T03:09:00;99559.98;;;6.71;84.07
54369;BME280;40266;52.434;17.056;2023-04-25T03:11:44;99559.89;;;6.68;84.07
54369;BME280;40266;52.434;17.056;2023-04-25T03:14:28;99560.67;;;6.63;84.28
54369;BME280;40266;52.434;17.056;2023-04-25T03:17:11;99565.41;;;6.60;84.27
54369;BME280;40266;52.434;17.056;2023-04-25T03:19:54;99564.08;;;6.57;84.25
54369;BME280;40266;52.434;17.056;2023-04-25T03:22:38;99562.05;;;6.54;84.40
54369;BME280;40266;52.434;17.056;2023-04-25T03:25:20;99558.31;;;6.50;84.50
54369;BME280;40266;52.434;17.056;2023-04-25T03:28:03;99560.13;;;6.46;84.54
54369;BME280;40266;52.434;17.056;2023-04-25T03:30:47;99563.45;;;6.44;84.67
54369;BME280;40266;52.434;17.056;2023-04-25T03:33:30;99562.32;;;6.39;84.65
54369;BME280;40266;52.434;17.056;2023-04-25T03:36:13;99559.13;;;6.34;84.82
54369;BME280;40266;52.434;17.056;2023-04-25T03:38:56;99563.17;;;6.31;84.89
54369;BME280;40266;52.434;17.056;2023-04-25T03:41:39;99564.09;;;6.28;84.97
54369;BME280;40266;52.434;17.056;2023-04-25T03:44:27;99563.29;;;6.24;85.05
54369;BME280;40266;52.434;17.056;2023-04-25T03:47:10;99560.73;;;6.21;85.29
54369;BME280;40266;52.434;17.056;2023-04-25T03:49:53;99556.45;;;6.18;85.29
54369;BME280;40266;52.434;17.056;2023-04-25T03:52:39;99561.54;;;6.15;85.52
54369;BME280;40266;52.434;17.056;2023-04-25T03:55:22;99565.04;;;6.13;85.56
54369;BME280;40266;52.434;17.056;2023-04-25T03:58:05;99569.38;;;6.13;85.85
54369;BME280;40266;52.434;17.056;2023-04-25T04:00:48;99574.40;;;6.13;85.78
54369;BME280;40266;52.434;17.056;2023-04-25T04:03:31;99571.97;;;6.12;86.00
54369;BME280;40266;52.434;17.056;2023-04-25T04:06:14;99572.31;;;6.14;86.02
54369;BME280;40266;52.434;17.056;2023-04-25T04:09:02;99573.98;;;6.17;86.24
54369;BME280;40266;52.434;17.056;2023-04-25T04:11:49;99574.65;;;6.19;86.51
54369;BME280;40266;52.434;17.056;2023-04-25T04:14:32;99576.85;;;6.22;86.41
54369;BME280;40266;52.434;17.056;2023-04-25T04:17:15;99579.52;;;6.27;86.66
54369;BME280;40266;52.434;17.056;2023-04-25T04:19:59;99581.02;;;6.32;86.75
54369;BME280;40266;52.434;17.056;2023-04-25T04:22:46;99584.57;;;6.36;86.95
54369;BME280;40266;52.434;17.056;2023-04-25T04:25:31;99585.52;;;6.42;87.01
54369;BME280;40266;52.434;17.056;2023-04-25T04:28:32;99581.92;;;6.49;87.03
54369;BME280;40266;52.434;17.056;2023-04-25T04:31:41;99589.39;;;6.58;86.99
54369;BME280;40266;52.434;17.056;2023-04-25T04:34:24;99589.08;;;6.65;87.19
54369;BME280;40266;52.434;17.056;2023-04-25T04:37:08;99593.25;;;6.74;87.10
54369;BME280;40266;52.434;17.056;2023-04-25T04:39:52;99597.27;;;6.82;87.23
54369;BME280;40266;52.434;17.056;2023-04-25T04:42:43;99599.70;;;6.91;87.15
54369;BME280;40266;52.434;17.056;2023-04-25T04:45:40;99602.11;;;7.01;87.11
54369;BME280;40266;52.434;17.056;2023-04-25T04:48:35;99606.05;;;7.12;87.06
54369;BME280;40266;52.434;17.056;2023-04-25T04:51:34;99602.95;;;7.27;87.05
54369;BME280;40266;52.434;17.056;2023-04-25T04:54:40;99602.28;;;7.42;86.90
54369;BME280;40266;52.434;17.056;2023-04-25T04:57:49;99599.19;;;7.57;86.59
54369;BME280;40266;52.434;17.056;2023-04-25T05:01:05;99598.00;;;7.71;86.22
54369;BME280;40266;52.434;17.056;2023-04-25T05:04:08;99601.79;;;7.95;86.10
54369;BME280;40266;52.434;17.056;2023-04-25T05:07:10;99602.14;;;8.30;85.47
54369;BME280;40266;52.434;17.056;2023-04-25T05:10:02;99600.20;;;8.59;85.07
54369;BME280;40266;52.434;17.056;2023-04-25T05:13:18;99593.77;;;8.91;84.66
54369;BME280;40266;52.434;17.056;2023-04-25T05:16:20;99599.16;;;9.22;83.87
54369;BME280;40266;52.434;17.056;2023-04-25T05:19:08;99596.20;;;9.63;83.16
54369;BME280;40266;52.434;17.056;2023-04-25T05:22:17;99592.65;;;10.31;81.57
54369;BME280;40266;52.434;17.056;2023-04-25T05:25:35;99594.95;;;10.61;80.00
54369;BME280;40266;52.434;17.056;2023-04-25T05:28:36;99596.55;;;10.85;78.81
54369;BME280;40266;52.434;17.056;2023-04-25T05:31:58;99593.66;;;11.26;77.96
54369;BME280;40266;52.434;17.056;2023-04-25T05:34:41;99594.71;;;11.58;76.11
54369;BME280;40266;52.434;17.056;2023-04-25T05:37:34;99591.61;;;11.88;75.44
54369;BME280;40266;52.434;17.056;2023-04-25T05:40:25;99597.84;;;12.12;74.19
54369;BME280;40266;52.434;17.056;2023-04-25T05:43:40;99597.13;;;12.91;73.68
54369;BME280;40266;52.434;17.056;2023-04-25T05:47:04;99596.98;;;13.60;71.41
54369;BME280;40266;52.434;17.056;2023-04-25T05:50:07;99595.10;;;13.93;69.38
54369;BME280;40266;52.434;17.056;2023-04-25T05:53:23;99599.54;;;13.58;69.19
54369;BME280;40266;52.434;17.056;2023-04-25T05:56:15;99603.56;;;13.00;68.93
54369;BME280;40266;52.434;17.056;2023-04-25T05:58:58;99608.73;;;12.58;69.07
54369;BME280;40266;52.434;17.056;2023-04-25T06:01:41;99609.64;;;12.23;68.80
54369;BME280;40266;52.434;17.056;2023-04-25T06:04:25;99611.17;;;11.98;69.14
54369;BME280;40266;52.434;17.056;2023-04-25T06:07:09;99610.04;;;11.78;69.44
54369;BME280;40266;52.434;17.056;2023-04-25T06:09:52;99612.23;;;11.58;69.85
54369;BME280;40266;52.434;17.056;2023-04-25T06:12:36;99610.52;;;11.38;69.99
54369;BME280;40266;52.434;17.056;2023-04-25T06:15:19;99615.03;;;11.34;70.78
54369;BME280;40266;52.434;17.056;2023-04-25T06:18:05;99614.22;;;11.51;71.16
54369;BME280;40266;52.434;17.056;2023-04-25T06:20:49;99611.04;;;11.93;70.92
54369;BME280;40266;52.434;17.056;2023-04-25T06:23:32;99615.58;;;12.28;70.49
54369;BME280;40266;52.434;17.056;2023-04-25T06:26:18;99618.02;;;12.24;69.78
54369;BME280;40266;52.434;17.056;2023-04-25T06:29:02;99616.61;;;12.20;69.82
54369;BME280;40266;52.434;17.056;2023-04-25T06:31:45;99614.70;;;12.11;69.88
54369;BME280;40266;52.434;17.056;2023-04-25T06:34:28;99610.08;;;12.04;69.81
54369;BME280;40266;52.434;17.056;2023-04-25T06:37:12;99612.42;;;12.02;69.91
54369;BME280;40266;52.434;17.056;2023-04-25T06:39:55;99609.86;;;11.96;69.27
54369;BME280;40266;52.434;17.056;2023-04-25T06:42:38;99611.53;;;11.85;69.35
54369;BME280;40266;52.434;17.056;2023-04-25T06:45:52;99611.48;;;11.73;69.03
54369;BME280;40266;52.434;17.056;2023-04-25T06:48:36;99609.98;;;11.61;69.06
54369;BME280;40266;52.434;17.056;2023-04-25T06:51:19;99609.29;;;11.56;69.15
54369;BME280;40266;52.434;17.056;2023-04-25T06:54:06;99610.27;;;11.49;69.20
54369;BME280;40266;52.434;17.056;2023-04-25T06:56:55;99611.13;;;11.49;69.33
54369;BME280;40266;52.434;17.056;2023-04-25T06:59:38;99606.90;;;11.51;69.29
54369;BME280;40266;52.434;17.056;2023-04-25T07:02:21;99606.08;;;11.58;69.69
54369;BME280;40266;52.434;17.056;2023-04-25T07:05:05;99607.32;;;11.67;69.48
54369;BME280;40266;52.434;17.056;2023-04-25T07:07:49;99609.11;;;11.66;69.16
54369;BME280;40266;52.434;17.056;2023-04-25T07:10:32;99606.52;;;11.60;68.99
54369;BME280;40266;52.434;17.056;2023-04-25T07:13:14;99604.91;;;11.61;69.48
54369;BME280;40266;52.434;17.056;2023-04-25T07:15:57;99606.47;;;11.75;69.69
54369;BME280;40266;52.434;17.056;2023-04-25T07:18:43;99609.20;;;11.81;69.41
54369;BME280;40266;52.434;17.056;2023-04-25T07:21:26;99602.75;;;11.85;69.42
54369;BME280;40266;52.434;17.056;2023-04-25T07:24:09;99608.91;;;11.75;68.94
54369;BME280;40266;52.434;17.056;2023-04-25T07:26:54;99607.14;;;11.72;69.40
54369;BME280;40266;52.434;17.056;2023-04-25T07:29:42;99613.30;;;11.66;68.71
54369;BME280;40266;52.434;17.056;2023-04-25T07:32:26;99613.10;;;11.62;68.95
54369;BME280;40266;52.434;17.056;2023-04-25T07:35:10;99613.01;;;11.60;69.50
54369;BME280;40266;52.434;17.056;2023-04-25T07:37:53;99614.45;;;11.64;69.11
54369;BME280;40266;52.434;17.056;2023-04-25T07:40:37;99616.11;;;11.70;69.49
54369;BME280;40266;52.434;17.056;2023-04-25T07:43:22;99622.04;;;11.84;69.36
54369;BME280;40266;52.434;17.056;2023-04-25T07:46:12;99620.77;;;11.87;68.66
54369;BME280;40266;52.434;17.056;2023-04-25T07:48:55;99616.52;;;11.87;68.77
54369;BME280;40266;52.434;17.056;2023-04-25T07:51:38;99618.54;;;11.89;68.33
54369;BME280;40266;52.434;17.056;2023-04-25T07:54:24;99621.17;;;11.89;68.48
54369;BME280;40266;52.434;17.056;2023-04-25T07:57:12;99618.74;;;11.93;68.77
54369;BME280;40266;52.434;17.056;2023-04-25T07:59:57;99616.80;;;11.93;68.19
54369;BME280;40266;52.434;17.056;2023-04-25T08:02:41;99619.23;;;11.94;67.78
54369;BME280;40266;52.434;17.056;2023-04-25T08:05:26;99618.50;;;11.95;67.26
54369;BME280;40266;52.434;17.056;2023-04-25T08:08:14;99616.30;;;12.01;67.18
54369;BME280;40266;52.434;17.056;2023-04-25T08:10:58;99618.55;;;12.11;67.18
54369;BME280;40266;52.434;17.056;2023-04-25T08:13:42;99625.08;;;12.18;67.29
54369;BME280;40266;52.434;17.056;2023-04-25T08:16:25;99628.08;;;12.22;67.46
54369;BME280;40266;52.434;17.056;2023-04-25T08:19:08;99623.54;;;12.26;67.04
54369;BME280;40266;52.434;17.056;2023-04-25T08:21:52;99625.11;;;12.31;66.85
54369;BME280;40266;52.434;17.056;2023-04-25T08:24:40;99624.35;;;12.32;66.27
54369;BME280;40266;52.434;17.056;2023-04-25T08:27:23;99627.79;;;12.37;66.24
54369;BME280;40266;52.434;17.056;2023-04-25T08:30:08;99628.85;;;12.46;66.43
54369;BME280;40266;52.434;17.056;2023-04-25T08:32:52;99634.17;;;12.53;65.83
54369;BME280;40266;52.434;17.056;2023-04-25T08:36:00;99633.38;;;12.55;65.81
54369;BME280;40266;52.434;17.056;2023-04-25T08:38:43;99635.31;;;12.63;65.62
54369;BME280;40266;52.434;17.056;2023-04-25T08:41:26;99637.86;;;12.69;65.39
54369;BME280;40266;52.434;17.056;2023-04-25T08:44:11;99634.66;;;12.78;65.69
54369;BME280;40266;52.434;17.056;2023-04-25T08:46:55;99635.24;;;12.85;65.61
54369;BME280;40266;52.434;17.056;2023-04-25T08:49:45;99635.58;;;12.89;64.37
54369;BME280;40266;52.434;17.056;2023-04-25T08:52:35;99638.14;;;12.91;64.32
54369;BME280;40266;52.434;17.056;2023-04-25T08:55:18;99638.76;;;12.93;64.30
54369;BME280;40266;52.434;17.056;2023-04-25T08:58:04;99642.34;;;12.91;63.52
54369;BME280;40266;52.434;17.056;2023-04-25T09:00:51;99642.45;;;12.72;63.36
54369;BME280;40266;52.434;17.056;2023-04-25T09:03:36;99646.03;;;12.58;63.58
54369;BME280;40266;52.434;17.056;2023-04-25T09:06:19;99647.55;;;12.47;63.99
54369;BME280;40266;52.434;17.056;2023-04-25T09:09:06;99648.79;;;12.42;63.99
54369;BME280;40266;52.434;17.056;2023-04-25T09:11:49;99655.33;;;12.41;64.12
54369;BME280;40266;52.434;17.056;2023-04-25T09:14:33;99661.31;;;12.44;63.80
54369;BME280;40266;52.434;17.056;2023-04-25T09:17:23;99660.53;;;12.50;63.87
54369;BME280;40266;52.434;17.056;2023-04-25T09:20:11;99665.14;;;12.49;63.75
54369;BME280;40266;52.434;17.056;2023-04-25T09:23:03;99669.11;;;12.46;63.60
54369;BME280;40266;52.434;17.056;2023-04-25T09:25:48;99667.86;;;12.38;63.08
54369;BME280;40266;52.434;17.056;2023-04-25T09:28:32;99669.73;;;12.27;63.33
54369;BME280;40266;52.434;17.056;2023-04-25T09:31:23;99674.40;;;12.15;63.58
54369;BME280;40266;52.434;17.056;2023-04-25T09:34:10;99671.70;;;12.08;64.05
54369;BME280;40266;52.434;17.056;2023-04-25T09:37:02;99673.98;;;12.08;64.26
54369;BME280;40266;52.434;17.056;2023-04-25T09:40:14;99674.88;;;12.12;64.51
54369;BME280;40266;52.434;17.056;2023-04-25T09:43:24;99675.05;;;12.20;64.63
54369;BME280;40266;52.434;17.056;2023-04-25T09:46:09;99677.66;;;12.34;64.66
54369;BME280;40266;52.434;17.056;2023-04-25T09:48:56;99680.22;;;12.49;63.79
54369;BME280;40266;52.434;17.056;2023-04-25T09:51:54;99680.40;;;12.53;62.48
54369;BME280;40266;52.434;17.056;2023-04-25T09:54:40;99681.87;;;12.55;62.36
54369;BME280;40266;52.434;17.056;2023-04-25T09:57:29;99682.02;;;12.64;62.67
54369;BME280;40266;52.434;17.056;2023-04-25T10:00:14;99685.88;;;12.68;61.67
54369;BME280;40266;52.434;17.056;2023-04-25T10:03:03;99688.41;;;12.62;61.24
54369;BME280;40266;52.434;17.056;2023-04-25T10:06:07;99688.71;;;12.47;60.97
54369;BME280;40266;52.434;17.056;2023-04-25T10:08:52;99690.91;;;12.36;61.33
54369;BME280;40266;52.434;17.056;2023-04-25T10:11:38;99694.52;;;12.28;61.39
54369;BME280;40266;52.434;17.056;2023-04-25T10:14:23;99693.92;;;12.26;61.56
54369;BME280;40266;52.434;17.056;2023-04-25T10:17:07;99700.93;;;12.26;61.39
54369;BME280;40266;52.434;17.056;2023-04-25T10:19:51;99702.48;;;12.26;61.51
54369;BME280;40266;52.434;17.056;2023-04-25T10:22:41;99695.71;;;12.29;61.52
54369;BME280;40266;52.434;17.056;2023-04-25T10:25:24;99698.46;;;12.35;62.00
54369;BME280;40266;52.434;17.056;2023-04-25T10:28:07;99695.66;;;12.39;62.24
54369;BME280;40266;52.434;17.056;2023-04-25T10:31:03;99692.58;;;12.42;62.07
54369;BME280;40266;52.434;17.056;2023-04-25T10:33:48;99694.48;;;12.38;62.01
54369;BME280;40266;52.434;17.056;2023-04-25T10:36:32;99696.95;;;12.34;61.34
54369;BME280;40266;52.434;17.056;2023-04-25T10:39:22;99698.34;;;12.34;61.69
54369;BME280;40266;52.434;17.056;2023-04-25T10:42:05;99697.60;;;12.43;62.03
54369;BME280;40266;52.434;17.056;2023-04-25T10:45:05;99693.52;;;12.53;62.07
54369;BME280;40266;52.434;17.056;2023-04-25T10:47:48;99695.12;;;12.65;61.72
54369;BME280;40266;52.434;17.056;2023-04-25T10:50:38;99696.30;;;12.71;60.98
54369;BME280;40266;52.434;17.056;2023-04-25T10:53:24;99692.39;;;12.72;60.33
54369;BME280;40266;52.434;17.056;2023-04-25T10:56:16;99696.46;;;12.71;59.88
54369;BME280;40266;52.434;17.056;2023-04-25T10:59:10;99699.82;;;12.74;59.58
54369;BME280;40266;52.434;17.056;2023-04-25T11:01:53;99697.25;;;12.69;59.26
54369;BME280;40266;52.434;17.056;2023-04-25T11:04:40;99695.32;;;12.69;60.10
54369;BME280;40266;52.434;17.056;2023-04-25T11:07:49;99694.98;;;12.69;60.18
54369;BME280;40266;52.434;17.056;2023-04-25T11:10:49;99692.59;;;12.63;59.89
54369;BME280;40266;52.434;17.056;2023-04-25T11:13:33;99694.04;;;12.58;59.41
54369;BME280;40266;52.434;17.056;2023-04-25T11:16:17;99689.95;;;12.51;59.44
54369;BME280;40266;52.434;17.056;2023-04-25T11:19:09;99687.58;;;12.44;59.54
54369;BME280;40266;52.434;17.056;2023-04-25T11:22:00;99687.61;;;12.39;59.72
54369;BME280;40266;52.434;17.056;2023-04-25T11:24:43;99687.20;;;12.45;60.28
54369;BME280;40266;52.434;17.056;2023-04-25T11:27:28;99693.65;;;12.58;59.90
54369;BME280;40266;52.434;17.056;2023-04-25T11:30:15;99695.70;;;12.68;59.88
54369;BME280;40266;52.434;17.056;2023-04-25T11:32:58;99696.70;;;12.86;59.38
54369;BME280;40266;52.434;17.056;2023-04-25T11:35:42;99699.30;;;13.03;59.24
54369;BME280;40266;52.434;17.056;2023-04-25T11:38:25;99698.31;;;13.22;59.23
54369;BME280;40266;52.434;17.056;2023-04-25T11:41:11;99704.22;;;13.40;58.35
54369;BME280;40266;52.434;17.056;2023-04-25T11:43:54;99704.80;;;13.50;57.73
54369;BME280;40266;52.434;17.056;2023-04-25T11:46:38;99703.33;;;13.56;57.30
54369;BME280;40266;52.434;17.056;2023-04-25T11:49:21;99706.09;;;13.61;57.11
54369;BME280;40266;52.434;17.056;2023-04-25T11:52:06;99706.90;;;13.66;56.37
54369;BME280;40266;52.434;17.056;2023-04-25T11:54:49;99706.39;;;13.66;55.24
54369;BME280;40266;52.434;17.056;2023-04-25T11:57:33;99703.64;;;13.60;55.26
54369;BME280;40266;52.434;17.056;2023-04-25T12:00:18;99705.92;;;13.57;55.53
54369;BME280;40266;52.434;17.056;2023-04-25T12:03:02;99705.77;;;13.48;55.24
54369;BME280;40266;52.434;17.056;2023-04-25T12:05:46;99706.80;;;13.37;55.25
54369;BME280;40266;52.434;17.056;2023-04-25T12:08:29;99704.02;;;13.24;55.50
54369;BME280;40266;52.434;17.056;2023-04-25T12:11:22;99708.89;;;13.16;55.78
54369;BME280;40266;52.434;17.056;2023-04-25T12:14:04;99711.09;;;13.06;55.65
54369;BME280;40266;52.434;17.056;2023-04-25T12:16:48;99706.71;;;12.94;56.08
54369;BME280;40266;52.434;17.056;2023-04-25T12:19:36;99710.27;;;12.84;56.64
54369;BME280;40266;52.434;17.056;2023-04-25T12:22:21;99714.98;;;12.76;57.04
54369;BME280;40266;52.434;17.056;2023-04-25T12:25:05;99715.46;;;12.68;57.44
54369;BME280;40266;52.434;17.056;2023-04-25T12:27:50;99713.77;;;12.63;57.75
54369;BME280;40266;52.434;17.056;2023-04-25T12:31:13;99717.95;;;12.55;58.07
54369;BME280;40266;52.434;17.056;2023-04-25T12:33:57;99723.40;;;12.46;59.16
54369;BME280;40266;52.434;17.056;2023-04-25T12:36:40;99722.45;;;12.44;59.71
54369;BME280;40266;52.434;17.056;2023-04-25T12:39:24;99726.42;;;12.45;60.15
54369;BME280;40266;52.434;17.056;2023-04-25T12:42:10;99726.01;;;12.51;60.63
54369;BME280;40266;52.434;17.056;2023-04-25T12:44:58;99721.06;;;12.60;60.56
54369;BME280;40266;52.434;17.056;2023-04-25T12:47:41;99720.21;;;12.69;60.12
54369;BME280;40266;52.434;17.056;2023-04-25T12:50:24;99721.39;;;12.70;59.50
54369;BME280;40266;52.434;17.056;2023-04-25T12:53:06;99725.48;;;12.73;59.72
54369;BME280;40266;52.434;17.056;2023-04-25T12:55:50;99726.94;;;12.75;59.66
54369;BME280;40266;52.434;17.056;2023-04-25T12:58:33;99726.64;;;12.82;59.66
54369;BME280;40266;52.434;17.056;2023-04-25T13:01:16;99727.67;;;12.91;59.25
54369;BME280;40266;52.434;17.056;2023-04-25T13:03:59;99723.58;;;12.97;59.08
54369;BME280;40266;52.434;17.056;2023-04-25T13:06:42;99725.96;;;13.03;58.88
54369;BME280;40266;52.434;17.056;2023-04-25T13:09:25;99722.98;;;13.11;58.72
54369;BME280;40266;52.434;17.056;2023-04-25T13:12:08;99720.14;;;13.20;58.75
54369;BME280;40266;52.434;17.056;2023-04-25T13:14:51;99724.34;;;13.29;58.63
54369;BME280;40266;52.434;17.056;2023-04-25T13:17:34;99724.63;;;13.35;58.11
54369;BME280;40266;52.434;17.056;2023-04-25T13:20:17;99725.25;;;13.32;57.80
54369;BME280;40266;52.434;17.056;2023-04-25T13:23:01;99725.06;;;13.28;58.67
54369;BME280;40266;52.434;17.056;2023-04-25T13:25:44;99724.85;;;13.30;58.68
54369;BME280;40266;52.434;17.056;2023-04-25T13:28:28;99725.14;;;13.31;58.72
54369;BME280;40266;52.434;17.056;2023-04-25T13:31:11;99730.85;;;13.24;58.15
54369;BME280;40266;52.434;17.056;2023-04-25T13:33:54;99733.56;;;13.10;58.16
54369;BME280;40266;52.434;17.056;2023-04-25T13:36:36;99739.89;;;12.97;58.83
54369;BME280;40266;52.434;17.056;2023-04-25T13:39:19;99738.76;;;12.90;59.15
54369;BME280;40266;52.434;17.056;2023-04-25T13:42:03;99742.33;;;12.76;58.92
54369;BME280;40266;52.434;17.056;2023-04-25T13:44:45;99745.78;;;12.60;59.35
54369;BME280;40266;52.434;17.056;2023-04-25T13:47:29;99751.70;;;12.48;59.39
54369;BME280;40266;52.434;17.056;2023-04-25T13:50:13;99757.92;;;12.41;59.75
54369;BME280;40266;52.434;17.056;2023-04-25T13:52:56;99757.48;;;12.35;60.07
54369;BME280;40266;52.434;17.056;2023-04-25T13:55:39;99765.43;;;12.33;60.30
54369;BME280;40266;52.434;17.056;2023-04-25T13:58:22;99760.50;;;12.29;60.26
54369;BME280;40266;52.434;17.056;2023-04-25T14:01:05;99766.45;;;12.20;60.77
54369;BME280;40266;52.434;17.056;2023-04-25T14:03:48;99766.06;;;12.12;60.85
54369;BME280;40266;52.434;17.056;2023-04-25T14:06:32;99765.63;;;12.09;61.06
54369;BME280;40266;52.434;17.056;2023-04-25T14:09:15;99770.54;;;12.04;61.37
54369;BME280;40266;52.434;17.056;2023-04-25T14:11:58;99769.92;;;12.02;61.26
54369;BME280;40266;52.434;17.056;2023-04-25T14:14:41;99768.84;;;11.98;61.48
54369;BME280;40266;52.434;17.056;2023-04-25T14:17:24;99768.00;;;11.97;61.58
54369;BME280;40266;52.434;17.056;2023-04-25T14:20:08;99769.73;;;11.98;61.95
54369;BME280;40266;52.434;17.056;2023-04-25T14:22:52;99775.61;;;11.99;62.11
54369;BME280;40266;52.434;17.056;2023-04-25T14:25:37;99782.82;;;11.94;62.57
54369;BME280;40266;52.434;17.056;2023-04-25T14:28:20;99787.09;;;11.87;62.87
54369;BME280;40266;52.434;17.056;2023-04-25T14:31:03;99789.46;;;11.74;62.54
54369;BME280;40266;52.434;17.056;2023-04-25T14:33:46;99790.95;;;11.62;62.44
54369;BME280;40266;52.434;17.056;2023-04-25T14:36:29;99793.52;;;11.49;62.28
54369;BME280;40266;52.434;17.056;2023-04-25T14:39:13;99803.03;;;11.32;62.22
54369;BME280;40266;52.434;17.056;2023-04-25T14:41:57;99803.42;;;11.15;62.80
54369;BME280;40266;52.434;17.056;2023-04-25T14:44:40;99811.17;;;11.03;63.25
54369;BME280;40266;52.434;17.056;2023-04-25T14:47:23;99812.79;;;10.90;63.61
54369;BME280;40266;52.434;17.056;2023-04-25T14:50:08;99811.86;;;10.87;63.67
54369;BME280;40266;52.434;17.056;2023-04-25T14:52:51;99812.50;;;10.89;63.79
54369;BME280;40266;52.434;17.056;2023-04-25T14:55:35;99814.13;;;10.92;64.01
54369;BME280;40266;52.434;17.056;2023-04-25T14:58:18;99809.70;;;10.94;64.35
54369;BME280;40266;52.434;17.056;2023-04-25T15:01:01;99808.23;;;10.97;64.81
54369;BME280;40266;52.434;17.056;2023-04-25T15:03:44;99803.96;;;10.99;65.19
54369;BME280;40266;52.434;17.056;2023-04-25T15:06:27;99801.48;;;11.00;65.46
54369;BME280;40266;52.434;17.056;2023-04-25T15:09:12;99802.95;;;11.03;65.46
54369;BME280;40266;52.434;17.056;2023-04-25T15:11:55;99796.57;;;11.01;65.97
54369;BME280;40266;52.434;17.056;2023-04-25T15:14:38;99799.68;;;11.01;66.44